Time,TemperatureF,DewpointF,PressureIn,WindDirection,WindDirectionDegrees,WindSpeedMPH,WindSpeedGustMPH,Humidity,HourlyPrecipIn,Conditions,Clouds,dailyrainin,SoftwareType,DateUTC
2013-09-26 00:00:00,73.3,71.1,29.80,NE,45,0.0,0.0,93,0.00,,,0.07,WUHU216HW,2013-09-26 04:00:00,
2013-09-26 00:05:00,73.3,71.1,29.80,NE,45,0.0,0.0,93,0.00,,,0.00,WUHU216HW,2013-09-26 04:05:00,
2013-09-26 00:10:00,73.3,71.1,29.80,NE,45,0.0,0.0,93,0.00,,,0.00,WUHU216HW,2013-09-26 04:10:00,
2013-09-26 00:15:00,73.1,70.9,29.80,NE,45,0.0,0.0,93,0.00,,,0.00,WUHU216HW,2013-09-26 04:15:00,
2013-09-26 00:20:00,73.1,70.9,29.80,NE,45,0.0,0.0,93,0.00,,,0.00,WUHU216HW,2013-09-26 04:20:00,
2013-09-26 00:25:00,73.1,70.9,29.80,NE,45,0.0,0.0,93,0.00,,,0.00,WUHU216HW,2013-09-26 04:25:00,
2013-09-26 00:30:00,73.1,70.9,29.80,NE,45,0.4,1.1,93,0.00,,,0.00,WUHU216HW,2013-09-26 04:30:00,
2013-09-26 00:35:00,73.1,70.9,29.80,NE,45,0.7,1.1,93,0.00,,,0.00,WUHU216HW,2013-09-26 04:35:00,
2013-09-26 00:40:00,73.1,70.9,29.79,NE,45,0.4,1.1,93,0.00,,,0.00,WUHU216HW,2013-09-26 04:40:00,
2013-09-26 00:45:00,73.1,70.9,29.79,NE,45,0.2,0.7,93,0.00,,,0.00,WUHU216HW,2013-09-26 04:45:00,
2013-09-26 00:50:00,73.1,70.9,29.79,NE,45,0.0,0.4,93,0.00,,,0.00,WUHU216HW,2013-09-26 04:50:00,
2013-09-26 00:55:00,73.1,70.9,29.79,NE,45,0.0,0.4,93,0.00,,,0.00,WUHU216HW,2013-09-26 04:55:00,
2013-09-26 01:00:00,73.1,70.9,29.79,NE,45,0.0,0.0,93,0.00,,,0.00,WUHU216HW,2013-09-26 05:00:00,
2013-09-26 01:05:00,72.9,70.7,29.79,NE,45,0.4,1.1,93,0.00,,,0.00,WUHU216HW,2013-09-26 05:05:00,
2013-09-26 01:10:00,72.9,70.7,29.78,NE,45,0.0,1.1,93,0.00,,,0.00,WUHU216HW,2013-09-26 05:10:00,
2013-09-26 01:15:00,72.9,70.7,29.78,NE,45,0.4,1.1,93,0.00,,,0.00,WUHU216HW,2013-09-26 05:15:00,
2013-09-26 01:20:00,72.7,70.6,29.78,NE,45,0.7,1.8,93,0.00,,,0.00,WUHU216HW,2013-09-26 05:20:00,
2013-09-26 01:25:00,72.7,70.6,29.78,NNE,23,1.1,1.8,93,0.00,,,0.00,WUHU216HW,2013-09-26 05:25:00,
2013-09-26 01:30:00,72.7,70.6,29.78,NE,45,0.9,1.1,93,0.00,,,0.00,WUHU216HW,2013-09-26 05:30:00,
2013-09-26 01:35:00,72.7,70.6,29.78,NE,45,0.4,1.6,93,0.00,,,0.00,WUHU216HW,2013-09-26 05:35:00,
2013-09-26 01:40:00,72.5,70.4,29.78,NNE,23,0.9,1.6,93,0.00,,,0.00,WUHU216HW,2013-09-26 05:40:00,
2013-09-26 01:45:00,72.5,70.4,29.78,NNE,23,0.7,1.1,93,0.00,,,0.00,WUHU216HW,2013-09-26 05:45:00,
2013-09-26 01:50:00,72.5,70.8,29.78,NE,45,1.1,2.0,94,0.00,,,0.00,WUHU216HW,2013-09-26 05:50:00,
2013-09-26 01:55:00,72.5,70.8,29.78,ENE,68,0.0,2.0,94,0.00,,,0.00,WUHU216HW,2013-09-26 05:55:00,
2013-09-26 02:00:00,72.5,70.8,29.77,South,180,0.0,1.1,94,0.00,,,0.00,WUHU216HW,2013-09-26 06:00:00,
2013-09-26 02:05:00,72.4,70.6,29.78,NNE,23,0.7,0.7,94,0.00,,,0.00,WUHU216HW,2013-09-26 06:05:00,
2013-09-26 02:10:00,72.5,70.8,29.78,NNE,23,0.0,0.9,94,0.00,,,0.00,WUHU216HW,2013-09-26 06:10:00,
2013-09-26 02:15:00,72.5,70.8,29.78,NNE,23,0.4,0.9,94,0.00,,,0.00,WUHU216HW,2013-09-26 06:15:00,
2013-09-26 02:20:00,72.5,70.8,29.77,NNE,23,0.4,0.7,94,0.00,,,0.00,WUHU216HW,2013-09-26 06:20:00,
2013-09-26 02:25:00,72.5,70.8,29.77,NE,45,0.0,0.7,94,0.00,,,0.00,WUHU216HW,2013-09-26 06:25:00,
2013-09-26 02:30:00,72.5,70.8,29.77,NE,45,0.9,0.9,94,0.00,,,0.00,WUHU216HW,2013-09-26 06:30:00,
2013-09-26 02:35:00,72.5,70.8,29.77,NE,45,0.0,0.9,94,0.00,,,0.00,WUHU216HW,2013-09-26 06:35:00,
2013-09-26 02:40:00,72.5,70.8,29.77,South,180,0.0,1.3,94,0.00,,,0.00,WUHU216HW,2013-09-26 06:40:00,
2013-09-26 02:45:00,72.4,70.6,29.77,SE,135,0.0,1.3,94,0.00,,,0.00,WUHU216HW,2013-09-26 06:45:00,
2013-09-26 02:50:00,72.4,70.6,29.77,SE,135,0.0,0.4,94,0.00,,,0.00,WUHU216HW,2013-09-26 06:50:00,
2013-09-26 02:55:00,72.4,70.6,29.77,NE,45,1.1,1.1,94,0.00,,,0.00,WUHU216HW,2013-09-26 06:55:00,
2013-09-26 03:00:00,72.4,70.6,29.77,NNE,23,1.1,1.1,94,0.00,,,0.00,WUHU216HW,2013-09-26 07:00:00,
2013-09-26 03:05:00,72.4,70.6,29.77,North,0,1.3,1.3,94,0.00,,,0.00,WUHU216HW,2013-09-26 07:05:00,
2013-09-26 03:10:00,72.4,70.6,29.78,NNE,23,2.5,2.5,94,0.00,,,0.00,WUHU216HW,2013-09-26 07:10:00,
2013-09-26 03:15:00,72.4,70.6,29.78,NNE,23,2.9,2.9,94,0.00,,,0.00,WUHU216HW,2013-09-26 07:15:00,
2013-09-26 03:20:00,72.2,70.4,29.77,NE,45,4.9,4.9,94,0.00,,,0.00,WUHU216HW,2013-09-26 07:20:00,
2013-09-26 03:25:00,72.2,70.4,29.77,North,0,2.2,4.9,94,0.00,,,0.00,WUHU216HW,2013-09-26 07:25:00,
2013-09-26 03:30:00,72.2,70.4,29.77,North,0,1.3,4.7,94,0.00,,,0.00,WUHU216HW,2013-09-26 07:30:00,
2013-09-26 03:35:00,72.4,70.6,29.78,North,0,0.0,2.2,94,0.00,,,0.00,WUHU216HW,2013-09-26 07:35:00,
2013-09-26 03:40:00,72.4,70.6,29.78,North,0,0.2,1.3,94,0.00,,,0.00,WUHU216HW,2013-09-26 07:40:00,
2013-09-26 03:45:00,72.4,70.6,29.77,ENE,68,1.8,1.8,94,0.00,,,0.00,WUHU216HW,2013-09-26 07:45:00,
2013-09-26 03:50:00,72.4,70.6,29.77,ENE,68,1.1,2.5,94,0.00,,,0.00,WUHU216HW,2013-09-26 07:50:00,
2013-09-26 03:55:00,72.4,70.6,29.77,North,0,1.1,2.5,94,0.00,,,0.00,WUHU216HW,2013-09-26 07:55:00,
2013-09-26 04:00:00,72.4,70.6,29.77,North,0,0.9,1.1,94,0.00,,,0.00,WUHU216HW,2013-09-26 08:00:00,
2013-09-26 04:05:00,72.4,70.6,29.77,North,0,0.0,0.9,94,0.00,,,0.00,WUHU216HW,2013-09-26 08:05:00,
2013-09-26 04:10:00,72.4,70.6,29.78,WSW,248,0.0,1.1,94,0.00,,,0.00,WUHU216HW,2013-09-26 08:10:00,
2013-09-26 04:15:00,72.4,70.6,29.78,ENE,68,0.0,1.1,94,0.00,,,0.00,WUHU216HW,2013-09-26 08:15:00,
2013-09-26 04:20:00,72.4,70.6,29.78,ENE,68,0.0,0.7,94,0.00,,,0.00,WUHU216HW,2013-09-26 08:20:00,
2013-09-26 04:25:00,72.2,70.4,29.77,ENE,68,1.1,1.1,94,0.00,,,0.00,WUHU216HW,2013-09-26 08:25:00,
2013-09-26 04:30:00,72.2,70.4,29.77,ENE,68,0.4,1.1,94,0.00,,,0.00,WUHU216HW,2013-09-26 08:30:00,
2013-09-26 04:35:00,72.2,70.4,29.78,NE,45,0.0,1.1,94,0.00,,,0.00,WUHU216HW,2013-09-26 08:35:00,
2013-09-26 04:40:00,72.2,70.4,29.77,NNE,23,1.3,1.3,94,0.00,,,0.00,WUHU216HW,2013-09-26 08:40:00,
2013-09-26 04:45:00,72.0,70.2,29.77,NNE,23,0.7,1.3,94,0.00,,,0.00,WUHU216HW,2013-09-26 08:45:00,
2013-09-26 04:50:00,72.0,70.2,29.77,NNE,23,0.2,1.3,94,0.00,,,0.00,WUHU216HW,2013-09-26 08:50:00,
2013-09-26 04:55:00,72.0,70.2,29.78,SE,135,0.0,0.4,94,0.00,,,0.00,WUHU216HW,2013-09-26 08:55:00,
2013-09-26 05:00:00,71.8,70.0,29.78,East,90,0.7,0.9,94,0.00,,,0.00,WUHU216HW,2013-09-26 09:00:00,
2013-09-26 05:05:00,71.8,70.0,29.78,ENE,68,0.0,1.1,94,0.00,,,0.00,WUHU216HW,2013-09-26 09:05:00,
2013-09-26 05:10:00,71.8,70.0,29.78,ENE,68,0.0,1.6,94,0.00,,,0.00,WUHU216HW,2013-09-26 09:10:00,
2013-09-26 05:15:00,71.8,70.0,29.78,NNE,23,1.1,1.6,94,0.00,,,0.00,WUHU216HW,2013-09-26 09:15:00,
2013-09-26 05:20:00,71.6,69.9,29.78,NNE,23,0.9,1.3,94,0.00,,,0.00,WUHU216HW,2013-09-26 09:20:00,
2013-09-26 05:25:00,71.6,69.9,29.78,North,0,1.3,1.8,94,0.00,,,0.00,WUHU216HW,2013-09-26 09:25:00,
2013-09-26 05:30:00,71.6,69.9,29.78,NNE,23,0.2,1.8,94,0.00,,,0.00,WUHU216HW,2013-09-26 09:30:00,
2013-09-26 05:35:00,71.6,69.9,29.78,NNE,23,0.4,1.1,94,0.00,,,0.00,WUHU216HW,2013-09-26 09:35:00,
2013-09-26 05:40:00,71.6,69.9,29.78,NE,45,0.4,1.1,94,0.00,,,0.00,WUHU216HW,2013-09-26 09:40:00,
2013-09-26 05:45:00,71.5,69.7,29.79,NNE,23,0.2,1.1,94,0.00,,,0.00,WUHU216HW,2013-09-26 09:45:00,
2013-09-26 05:50:00,71.5,69.7,29.79,NNE,23,0.4,1.1,94,0.00,,,0.00,WUHU216HW,2013-09-26 09:50:00,
2013-09-26 05:55:00,71.5,69.7,29.79,NNE,23,0.7,1.1,94,0.00,,,0.00,WUHU216HW,2013-09-26 09:55:00,
2013-09-26 06:00:00,71.5,69.7,29.79,NNE,23,0.7,1.1,94,0.00,,,0.00,WUHU216HW,2013-09-26 10:00:00,
2013-09-26 06:05:00,71.5,69.7,29.79,North,0,1.1,1.1,94,0.00,,,0.00,WUHU216HW,2013-09-26 10:05:00,
2013-09-26 06:10:00,71.3,69.5,29.79,North,0,1.1,2.0,94,0.00,,,0.00,WUHU216HW,2013-09-26 10:10:00,
2013-09-26 06:15:00,71.3,69.5,29.80,North,0,1.6,2.0,94,0.00,,,0.00,WUHU216HW,2013-09-26 10:15:00,
2013-09-26 06:20:00,71.1,69.3,29.80,North,0,1.8,3.1,94,0.00,,,0.00,WUHU216HW,2013-09-26 10:20:00,
2013-09-26 06:25:00,70.9,69.1,29.80,North,0,1.6,3.1,94,0.00,,,0.00,WUHU216HW,2013-09-26 10:25:00,
2013-09-26 06:30:00,70.9,69.1,29.80,NNE,23,1.6,2.2,94,0.00,,,0.00,WUHU216HW,2013-09-26 10:30:00,
2013-09-26 06:35:00,70.7,69.0,29.80,North,0,2.2,2.2,94,0.00,,,0.00,WUHU216HW,2013-09-26 10:35:00,
2013-09-26 06:40:00,70.7,69.0,29.80,NNE,23,1.1,2.2,94,0.00,,,0.00,WUHU216HW,2013-09-26 10:40:00,
2013-09-26 06:45:00,70.6,68.8,29.80,NE,45,1.3,2.0,94,0.00,,,0.00,WUHU216HW,2013-09-26 10:45:00,
2013-09-26 06:50:00,70.6,68.8,29.80,NNE,23,1.6,2.5,94,0.00,,,0.00,WUHU216HW,2013-09-26 10:50:00,
2013-09-26 06:55:00,70.6,68.8,29.80,North,0,1.1,2.5,94,0.00,,,0.00,WUHU216HW,2013-09-26 10:55:00,
2013-09-26 07:00:00,70.6,68.8,29.81,NE,45,1.1,1.8,94,0.00,,,0.00,WUHU216HW,2013-09-26 11:00:00,
2013-09-26 07:05:00,70.4,68.6,29.81,NE,45,0.4,2.5,94,0.00,,,0.00,WUHU216HW,2013-09-26 11:05:00,
2013-09-26 07:10:00,70.4,68.6,29.81,North,0,1.8,2.7,94,0.00,,,0.00,WUHU216HW,2013-09-26 11:10:00,
2013-09-26 07:15:00,70.2,68.7,29.82,North,0,2.5,3.6,95,0.00,,,0.00,WUHU216HW,2013-09-26 11:15:00,
2013-09-26 07:20:00,70.2,68.7,29.82,NNE,23,1.6,3.6,95,0.00,,,0.00,WUHU216HW,2013-09-26 11:20:00,
2013-09-26 07:25:00,70.2,68.7,29.82,NNE,23,0.9,2.5,95,0.00,,,0.00,WUHU216HW,2013-09-26 11:25:00,
2013-09-26 07:30:00,70.0,68.5,29.82,NNE,23,1.1,4.0,95,0.00,,,0.00,WUHU216HW,2013-09-26 11:30:00,
2013-09-26 07:35:00,70.0,68.5,29.82,North,0,2.5,4.0,95,0.00,,,0.00,WUHU216HW,2013-09-26 11:35:00,
2013-09-26 07:40:00,70.0,68.5,29.83,NNE,23,2.7,2.7,95,0.00,,,0.00,WUHU216HW,2013-09-26 11:40:00,
2013-09-26 07:45:00,69.8,68.3,29.83,NNE,23,0.9,2.7,95,0.00,,,0.00,WUHU216HW,2013-09-26 11:45:00,
2013-09-26 07:50:00,69.8,68.3,29.83,North,0,2.5,2.5,95,0.00,,,0.00,WUHU216HW,2013-09-26 11:50:00,
2013-09-26 07:55:00,69.8,68.3,29.83,ENE,68,2.5,4.0,95,0.00,,,0.00,WUHU216HW,2013-09-26 11:55:00,
2013-09-26 08:00:00,69.8,68.3,29.83,NE,45,0.7,4.0,95,0.00,,,0.00,WUHU216HW,2013-09-26 12:00:00,
2013-09-26 08:05:00,69.8,68.3,29.83,North,0,1.1,3.4,95,0.00,,,0.00,WUHU216HW,2013-09-26 12:05:00,
2013-09-26 08:10:00,69.8,68.3,29.84,North,0,0.4,2.7,95,0.00,,,0.00,WUHU216HW,2013-09-26 12:10:00,
2013-09-26 08:16:00,69.8,68.3,29.84,NNE,23,1.3,2.7,95,0.00,,,0.00,WUHU216HW,2013-09-26 12:16:00,
2013-09-26 08:21:00,69.8,68.3,29.84,NE,45,0.9,3.4,95,0.00,,,0.00,WUHU216HW,2013-09-26 12:21:00,
2013-09-26 08:26:00,69.7,68.1,29.84,NNE,23,1.1,3.4,95,0.00,,,0.00,WUHU216HW,2013-09-26 12:26:00,
2013-09-26 08:31:00,69.7,68.1,29.84,NNE,23,1.6,2.5,95,0.00,,,0.00,WUHU216HW,2013-09-26 12:31:00,
2013-09-26 08:36:00,69.7,68.1,29.85,NNE,23,2.2,2.5,95,0.00,,,0.00,WUHU216HW,2013-09-26 12:36:00,
2013-09-26 08:41:00,69.7,68.1,29.85,NNE,23,2.5,2.5,95,0.00,,,0.00,WUHU216HW,2013-09-26 12:41:00,
2013-09-26 08:46:00,69.7,68.1,29.85,NNE,23,1.1,2.5,95,0.00,,,0.00,WUHU216HW,2013-09-26 12:46:00,
2013-09-26 08:51:00,69.5,68.0,29.85,North,0,2.5,2.5,95,0.00,,,0.00,WUHU216HW,2013-09-26 12:51:00,
2013-09-26 08:56:00,69.5,68.0,29.85,NNE,23,1.8,2.5,95,0.00,,,0.00,WUHU216HW,2013-09-26 12:56:00,
2013-09-26 09:01:00,69.5,68.0,29.85,North,0,1.3,3.4,95,0.00,,,0.00,WUHU216HW,2013-09-26 13:01:00,
2013-09-26 09:06:00,69.5,68.0,29.86,North,0,1.1,3.4,95,0.00,,,0.00,WUHU216HW,2013-09-26 13:06:00,
2013-09-26 09:11:00,69.3,67.8,29.86,North,0,1.6,2.0,95,0.00,,,0.00,WUHU216HW,2013-09-26 13:11:00,
2013-09-26 09:16:00,69.3,67.8,29.86,NNE,23,2.2,2.2,95,0.00,,,0.00,WUHU216HW,2013-09-26 13:16:00,
2013-09-26 09:21:00,69.3,67.8,29.86,North,0,1.1,2.5,95,0.00,,,0.00,WUHU216HW,2013-09-26 13:21:00,
2013-09-26 09:26:00,69.3,67.8,29.86,NE,45,0.7,2.5,95,0.00,,,0.00,WUHU216HW,2013-09-26 13:26:00,
2013-09-26 09:31:00,69.3,67.8,29.86,NE,45,1.3,1.8,95,0.00,,,0.00,WUHU216HW,2013-09-26 13:31:00,
2013-09-26 09:36:00,69.5,68.0,29.86,NE,45,2.5,2.5,95,0.00,,,0.00,WUHU216HW,2013-09-26 13:36:00,
2013-09-26 09:41:00,69.5,68.0,29.87,NE,45,1.3,2.5,95,0.00,,,0.00,WUHU216HW,2013-09-26 13:41:00,
2013-09-26 09:46:00,69.7,67.9,29.87,NE,45,1.3,1.8,94,0.00,,,0.00,WUHU216HW,2013-09-26 13:46:00,
2013-09-26 09:51:00,69.7,67.9,29.87,North,0,1.6,1.6,94,0.00,,,0.00,WUHU216HW,2013-09-26 13:51:00,
2013-09-26 09:56:00,69.7,67.9,29.87,NNE,23,0.7,1.6,94,0.00,,,0.00,WUHU216HW,2013-09-26 13:56:00,
2013-09-26 10:01:00,69.8,68.1,29.88,North,0,0.4,1.8,94,0.00,,,0.00,WUHU216HW,2013-09-26 14:01:00,
2013-09-26 10:06:00,69.7,67.9,29.88,North,0,1.1,1.8,94,0.00,,,0.00,WUHU216HW,2013-09-26 14:06:00,
2013-09-26 10:11:00,69.7,67.9,29.88,NNE,23,1.1,1.8,94,0.00,,,0.00,WUHU216HW,2013-09-26 14:11:00,
2013-09-26 10:16:00,69.7,67.9,29.88,NNE,23,0.9,1.8,94,0.00,,,0.00,WUHU216HW,2013-09-26 14:16:00,
2013-09-26 10:21:00,69.7,67.9,29.88,NE,45,1.1,2.2,94,0.00,,,0.00,WUHU216HW,2013-09-26 14:21:00,
2013-09-26 10:26:00,69.5,67.7,29.88,NNE,23,0.7,2.2,94,0.00,,,0.00,WUHU216HW,2013-09-26 14:26:00,
2013-09-26 10:31:00,69.5,67.7,29.88,NNE,23,4.0,4.0,94,0.00,,,0.00,WUHU216HW,2013-09-26 14:31:00,
2013-09-26 10:36:00,69.3,67.5,29.88,NNW,338,0.7,4.0,94,0.00,,,0.00,WUHU216HW,2013-09-26 14:36:00,
2013-09-26 10:41:00,69.5,67.7,29.88,North,0,0.9,1.8,94,0.00,,,0.00,WUHU216HW,2013-09-26 14:41:00,
2013-09-26 10:46:00,69.5,67.7,29.88,North,0,1.8,1.8,94,0.00,,,0.00,WUHU216HW,2013-09-26 14:46:00,
2013-09-26 10:51:00,69.7,67.9,29.88,WSW,248,1.1,1.8,94,0.00,,,0.00,WUHU216HW,2013-09-26 14:51:00,
2013-09-26 10:56:00,70.0,68.2,29.88,NNE,23,1.1,1.8,94,0.00,,,0.00,WUHU216HW,2013-09-26 14:56:00,
2013-09-26 11:01:00,70.2,68.0,29.88,North,0,1.1,1.8,93,0.00,,,0.00,WUHU216HW,2013-09-26 15:01:00,
2013-09-26 11:06:00,70.2,68.0,29.89,North,0,1.6,2.0,93,0.00,,,0.00,WUHU216HW,2013-09-26 15:06:00,
2013-09-26 11:11:00,70.2,68.0,29.89,NE,45,3.8,3.8,93,0.00,,,0.00,WUHU216HW,2013-09-26 15:11:00,
2013-09-26 11:16:00,70.4,68.0,29.89,North,0,1.1,3.8,92,0.00,,,0.00,WUHU216HW,2013-09-26 15:16:00,
2013-09-26 11:21:00,70.4,68.0,29.89,North,0,1.3,3.4,92,0.00,,,0.00,WUHU216HW,2013-09-26 15:21:00,
2013-09-26 11:26:00,70.4,68.0,29.89,NNE,23,1.3,3.4,92,0.00,,,0.00,WUHU216HW,2013-09-26 15:26:00,
2013-09-26 11:31:00,70.4,68.0,29.89,NNE,23,2.2,2.7,92,0.00,,,0.00,WUHU216HW,2013-09-26 15:31:00,
2013-09-26 11:36:00,70.6,68.1,29.89,NNE,23,1.1,4.0,92,0.00,,,0.00,WUHU216HW,2013-09-26 15:36:00,
2013-09-26 11:41:00,70.4,67.6,29.89,North,0,1.3,4.7,91,0.00,,,0.00,WUHU216HW,2013-09-26 15:41:00,
2013-09-26 11:46:00,70.4,67.6,29.89,ENE,68,4.0,4.7,91,0.00,,,0.00,WUHU216HW,2013-09-26 15:46:00,
2013-09-26 11:51:00,70.2,67.4,29.89,NE,45,1.1,4.0,91,0.00,,,0.00,WUHU216HW,2013-09-26 15:51:00,
2013-09-26 11:56:00,70.4,67.6,29.89,NNE,23,2.7,2.9,91,0.00,,,0.00,WUHU216HW,2013-09-26 15:56:00,
2013-09-26 12:01:00,70.4,67.6,29.89,NE,45,1.8,2.7,91,0.00,,,0.00,WUHU216HW,2013-09-26 16:01:00,
2013-09-26 12:06:00,70.4,67.6,29.89,NE,45,1.6,1.8,91,0.00,,,0.00,WUHU216HW,2013-09-26 16:06:00,
2013-09-26 12:11:00,70.4,67.6,29.89,North,0,1.1,2.5,91,0.00,,,0.00,WUHU216HW,2013-09-26 16:11:00,
2013-09-26 12:16:00,70.6,67.8,29.89,NNE,23,1.1,2.5,91,0.00,,,0.00,WUHU216HW,2013-09-26 16:16:00,
2013-09-26 12:21:00,70.6,67.8,29.89,NNE,23,1.3,1.8,91,0.00,,,0.00,WUHU216HW,2013-09-26 16:21:00,
2013-09-26 12:26:00,70.9,68.1,29.89,NE,45,1.1,2.5,91,0.00,,,0.00,WUHU216HW,2013-09-26 16:26:00,
2013-09-26 12:31:00,71.3,68.5,29.89,North,0,1.1,2.5,91,0.00,,,0.00,WUHU216HW,2013-09-26 16:31:00,
2013-09-26 12:36:00,71.6,68.9,29.89,NNE,23,3.6,3.6,91,0.00,,,0.00,WUHU216HW,2013-09-26 16:36:00,
2013-09-26 12:41:00,72.0,68.9,29.89,North,0,0.2,3.6,90,0.00,,,0.00,WUHU216HW,2013-09-26 16:41:00,
2013-09-26 12:46:00,72.4,68.9,29.89,North,0,2.2,2.5,89,0.00,,,0.00,WUHU216HW,2013-09-26 16:46:00,
2013-09-26 12:51:00,72.7,68.9,29.89,NE,45,0.4,2.5,88,0.00,,,0.00,WUHU216HW,2013-09-26 16:51:00,
2013-09-26 12:56:00,73.1,69.7,29.89,ENE,68,3.4,3.6,89,0.00,,,0.00,WUHU216HW,2013-09-26 16:56:00,
2013-09-26 13:01:00,73.3,69.5,29.88,NE,45,1.8,3.6,88,0.00,,,0.00,WUHU216HW,2013-09-26 17:01:00,
2013-09-26 13:06:00,73.3,69.5,29.88,NNE,23,1.8,2.7,88,0.00,,,0.00,WUHU216HW,2013-09-26 17:06:00,
2013-09-26 13:11:00,73.1,69.3,29.88,NNE,23,1.1,2.5,88,0.00,,,0.00,WUHU216HW,2013-09-26 17:11:00,
2013-09-26 13:16:00,73.1,68.7,29.88,NE,45,1.8,3.4,86,0.00,,,0.00,WUHU216HW,2013-09-26 17:16:00,
2013-09-26 13:21:00,72.7,68.3,29.88,North,0,2.0,3.4,86,0.00,,,0.00,WUHU216HW,2013-09-26 17:21:00,
2013-09-26 13:26:00,72.4,68.3,29.88,NNE,23,1.1,2.5,87,0.00,,,0.00,WUHU216HW,2013-09-26 17:26:00,
2013-09-26 13:31:00,72.2,68.1,29.88,North,0,1.8,2.0,87,0.00,,,0.00,WUHU216HW,2013-09-26 17:31:00,
2013-09-26 13:36:00,72.0,68.0,29.88,NNE,23,1.1,2.0,87,0.00,,,0.00,WUHU216HW,2013-09-26 17:36:00,
2013-09-26 13:41:00,72.0,68.0,29.88,North,0,1.6,1.8,87,0.00,,,0.00,WUHU216HW,2013-09-26 17:41:00,
2013-09-26 13:46:00,71.8,68.0,29.88,North,0,0.4,2.0,88,0.00,,,0.00,WUHU216HW,2013-09-26 17:46:00,
2013-09-26 13:51:00,72.0,68.2,29.88,NE,45,1.1,2.0,88,0.00,,,0.00,WUHU216HW,2013-09-26 17:51:00,
2013-09-26 13:56:00,72.0,68.2,29.88,NNE,23,1.8,2.0,88,0.00,,,0.00,WUHU216HW,2013-09-26 17:56:00,
2013-09-26 14:01:00,72.4,68.3,29.88,North,0,2.0,2.5,87,0.00,,,0.00,WUHU216HW,2013-09-26 18:01:00,
2013-09-26 14:06:00,72.4,68.3,29.88,North,0,0.4,2.5,87,0.00,,,0.00,WUHU216HW,2013-09-26 18:06:00,
2013-09-26 14:11:00,72.2,68.1,29.88,NE,45,0.7,2.0,87,0.00,,,0.00,WUHU216HW,2013-09-26 18:11:00,
2013-09-26 14:16:00,72.0,68.0,29.88,NNE,23,0.2,2.0,87,0.00,,,0.00,WUHU216HW,2013-09-26 18:16:00,
2013-09-26 14:21:00,72.0,68.0,29.88,NNE,23,1.1,2.0,87,0.00,,,0.00,WUHU216HW,2013-09-26 18:21:00,
2013-09-26 14:26:00,72.2,68.1,29.88,North,0,0.9,2.0,87,0.00,,,0.00,WUHU216HW,2013-09-26 18:26:00,
2013-09-26 14:31:00,72.4,68.3,29.88,North,0,0.4,1.8,87,0.00,,,0.00,WUHU216HW,2013-09-26 18:31:00,
2013-09-26 14:36:00,72.5,68.5,29.87,SSW,203,0.4,1.6,87,0.00,,,0.00,WUHU216HW,2013-09-26 18:36:00,
2013-09-26 14:41:00,72.7,68.3,29.87,North,0,1.8,1.8,86,0.00,,,0.00,WUHU216HW,2013-09-26 18:41:00,
2013-09-26 14:46:00,72.4,68.0,29.87,NNE,23,0.9,1.8,86,0.00,,,0.00,WUHU216HW,2013-09-26 18:46:00,
2013-09-26 14:51:00,72.4,68.3,29.87,NNE,23,0.0,1.1,87,0.00,,,0.00,WUHU216HW,2013-09-26 18:51:00,
2013-09-26 14:56:00,72.4,68.3,29.88,North,0,1.8,1.8,87,0.00,,,0.00,WUHU216HW,2013-09-26 18:56:00,
2013-09-26 15:01:00,72.2,68.1,29.88,North,0,1.8,1.8,87,0.00,,,0.00,WUHU216HW,2013-09-26 19:01:00,
2013-09-26 15:06:00,72.2,68.1,29.88,North,0,1.1,1.8,87,0.00,,,0.00,WUHU216HW,2013-09-26 19:06:00,
2013-09-26 15:11:00,72.2,68.1,29.87,North,0,1.1,1.3,87,0.00,,,0.00,WUHU216HW,2013-09-26 19:11:00,
2013-09-26 15:16:00,72.2,68.1,29.87,NNE,23,0.7,3.1,87,0.00,,,0.00,WUHU216HW,2013-09-26 19:16:00,
2013-09-26 15:21:00,72.2,68.1,29.88,NE,45,2.0,3.1,87,0.00,,,0.00,WUHU216HW,2013-09-26 19:21:00,
2013-09-26 15:26:00,72.2,67.8,29.87,ENE,68,2.5,2.5,86,0.00,,,0.00,WUHU216HW,2013-09-26 19:26:00,
2013-09-26 15:31:00,71.8,67.8,29.88,NNE,23,0.4,2.5,87,0.00,,,0.00,WUHU216HW,2013-09-26 19:31:00,
2013-09-26 15:36:00,71.8,67.8,29.88,NNE,23,1.3,2.5,87,0.00,,,0.00,WUHU216HW,2013-09-26 19:36:00,
2013-09-26 15:41:00,71.6,67.6,29.88,NNE,23,0.9,2.5,87,0.00,,,0.00,WUHU216HW,2013-09-26 19:41:00,
2013-09-26 15:46:00,71.6,67.6,29.88,NNE,23,2.0,2.0,87,0.00,,,0.00,WUHU216HW,2013-09-26 19:46:00,
2013-09-26 15:51:00,71.6,67.6,29.88,North,0,1.1,2.0,87,0.00,,,0.00,WUHU216HW,2013-09-26 19:51:00,
2013-09-26 15:56:00,71.6,67.6,29.88,North,0,0.9,1.8,87,0.00,,,0.00,WUHU216HW,2013-09-26 19:56:00,
2013-09-26 16:01:00,71.8,67.8,29.88,North,0,1.6,1.8,87,0.00,,,0.00,WUHU216HW,2013-09-26 20:01:00,
2013-09-26 16:06:00,71.8,67.8,29.88,NNE,23,0.4,3.4,87,0.00,,,0.00,WUHU216HW,2013-09-26 20:06:00,
2013-09-26 16:11:00,72.0,68.0,29.88,NE,45,1.1,3.4,87,0.00,,,0.00,WUHU216HW,2013-09-26 20:11:00,
2013-09-26 16:16:00,72.0,68.0,29.88,NE,45,0.4,1.8,87,0.00,,,0.00,WUHU216HW,2013-09-26 20:16:00,
2013-09-26 16:21:00,72.0,68.0,29.88,North,0,1.1,2.2,87,0.00,,,0.00,WUHU216HW,2013-09-26 20:21:00,
2013-09-26 16:26:00,71.8,67.8,29.88,North,0,1.1,2.2,87,0.00,,,0.00,WUHU216HW,2013-09-26 20:26:00,
2013-09-26 16:31:00,71.8,67.8,29.89,North,0,0.2,1.8,87,0.00,,,0.00,WUHU216HW,2013-09-26 20:31:00,
2013-09-26 16:36:00,72.0,68.0,29.88,NNE,23,1.1,1.8,87,0.00,,,0.00,WUHU216HW,2013-09-26 20:36:00,
2013-09-26 16:41:00,72.2,68.1,29.88,NE,45,0.7,1.8,87,0.00,,,0.00,WUHU216HW,2013-09-26 20:41:00,
2013-09-26 16:46:00,72.2,68.1,29.88,NNE,23,0.7,1.8,87,0.00,,,0.00,WUHU216HW,2013-09-26 20:46:00,
2013-09-26 16:51:00,72.2,68.1,29.89,NE,45,1.6,1.8,87,0.00,,,0.00,WUHU216HW,2013-09-26 20:51:00,
2013-09-26 16:56:00,72.0,68.0,29.89,North,0,1.1,3.1,87,0.00,,,0.00,WUHU216HW,2013-09-26 20:56:00,
2013-09-26 17:01:00,72.0,68.0,29.89,NNE,23,1.1,3.1,87,0.00,,,0.00,WUHU216HW,2013-09-26 21:01:00,
2013-09-26 17:06:00,72.2,68.1,29.89,North,0,0.7,1.8,87,0.00,,,0.00,WUHU216HW,2013-09-26 21:06:00,
2013-09-26 17:11:00,72.2,67.8,29.88,NE,45,2.9,3.4,86,0.00,,,0.00,WUHU216HW,2013-09-26 21:11:00,
2013-09-26 17:16:00,72.2,68.1,29.89,North,0,1.3,3.6,87,0.00,,,0.00,WUHU216HW,2013-09-26 21:16:00,
2013-09-26 17:21:00,72.4,68.3,29.89,NE,45,4.5,4.5,87,0.00,,,0.00,WUHU216HW,2013-09-26 21:21:00,
2013-09-26 17:26:00,72.2,67.8,29.89,NNE,23,0.9,4.5,86,0.00,,,0.00,WUHU216HW,2013-09-26 21:26:00,
2013-09-26 17:31:00,72.0,67.6,29.89,NNE,23,0.7,3.1,86,0.00,,,0.00,WUHU216HW,2013-09-26 21:31:00,
2013-09-26 17:36:00,72.0,68.0,29.89,NNE,23,1.1,3.1,87,0.00,,,0.00,WUHU216HW,2013-09-26 21:36:00,
2013-09-26 17:41:00,72.0,68.0,29.90,NE,45,2.0,2.5,87,0.00,,,0.00,WUHU216HW,2013-09-26 21:41:00,
2013-09-26 17:46:00,71.8,67.8,29.90,NNE,23,0.7,2.0,87,0.00,,,0.00,WUHU216HW,2013-09-26 21:46:00,
2013-09-26 17:51:00,71.8,67.8,29.90,NE,45,0.9,1.3,87,0.00,,,0.00,WUHU216HW,2013-09-26 21:51:00,
2013-09-26 17:56:00,71.8,68.0,29.90,NNE,23,1.1,1.3,88,0.00,,,0.00,WUHU216HW,2013-09-26 21:56:00,
2013-09-26 18:01:00,71.8,68.0,29.90,NNE,23,0.9,1.1,88,0.00,,,0.00,WUHU216HW,2013-09-26 22:01:00,
2013-09-26 18:06:00,71.8,68.0,29.90,NNE,23,0.4,1.1,88,0.00,,,0.00,WUHU216HW,2013-09-26 22:06:00,
2013-09-26 18:11:00,71.8,68.0,29.90,NNE,23,1.1,1.6,88,0.00,,,0.00,WUHU216HW,2013-09-26 22:11:00,
2013-09-26 18:16:00,71.8,68.0,29.90,NE,45,0.9,1.6,88,0.00,,,0.00,WUHU216HW,2013-09-26 22:16:00,
2013-09-26 18:21:00,71.8,68.0,29.91,North,0,1.1,1.6,88,0.00,,,0.00,WUHU216HW,2013-09-26 22:21:00,
2013-09-26 18:26:00,71.8,68.0,29.91,NNE,23,1.1,1.6,88,0.00,,,0.00,WUHU216HW,2013-09-26 22:26:00,
2013-09-26 18:31:00,71.8,68.0,29.91,NNE,23,1.1,1.1,88,0.00,,,0.00,WUHU216HW,2013-09-26 22:31:00,
2013-09-26 18:36:00,71.6,67.9,29.91,NNE,23,0.4,1.1,88,0.00,,,0.00,WUHU216HW,2013-09-26 22:36:00,
2013-09-26 18:41:00,71.6,67.9,29.91,NE,45,0.2,1.1,88,0.00,,,0.00,WUHU216HW,2013-09-26 22:41:00,
2013-09-26 18:46:00,71.6,67.9,29.91,NE,45,0.0,1.1,88,0.00,,,0.00,WUHU216HW,2013-09-26 22:46:00,
2013-09-26 18:51:00,71.6,67.9,29.92,NE,45,0.0,1.1,88,0.00,,,0.00,WUHU216HW,2013-09-26 22:51:00,
2013-09-26 18:56:00,71.5,67.7,29.92,NE,45,0.0,0.0,88,0.00,,,0.00,WUHU216HW,2013-09-26 22:56:00,
2013-09-26 19:01:00,71.5,67.7,29.92,NE,45,0.0,0.4,88,0.00,,,0.00,WUHU216HW,2013-09-26 23:01:00,
2013-09-26 19:06:00,71.5,67.7,29.92,NE,45,0.0,0.4,88,0.00,,,0.00,WUHU216HW,2013-09-26 23:06:00,
2013-09-26 19:11:00,71.3,67.5,29.92,NE,45,0.7,0.9,88,0.00,,,0.00,WUHU216HW,2013-09-26 23:11:00,
2013-09-26 19:16:00,71.3,67.5,29.92,NNE,23,0.9,0.9,88,0.00,,,0.00,WUHU216HW,2013-09-26 23:16:00,
2013-09-26 19:21:00,71.3,67.9,29.92,NNE,23,0.9,1.1,89,0.00,,,0.00,WUHU216HW,2013-09-26 23:21:00,
2013-09-26 19:26:00,71.3,67.9,29.92,NNE,23,0.4,1.1,89,0.00,,,0.00,WUHU216HW,2013-09-26 23:26:00,
2013-09-26 19:31:00,71.1,67.7,29.92,NNE,23,0.9,1.1,89,0.00,,,0.00,WUHU216HW,2013-09-26 23:31:00,
2013-09-26 19:36:00,71.1,67.7,29.92,NNE,23,0.4,1.1,89,0.00,,,0.00,WUHU216HW,2013-09-26 23:36:00,
2013-09-26 19:41:00,71.1,67.7,29.92,NNE,23,0.0,0.7,89,0.00,,,0.00,WUHU216HW,2013-09-26 23:41:00,
2013-09-26 19:46:00,71.1,67.7,29.93,NNE,23,0.4,0.9,89,0.00,,,0.00,WUHU216HW,2013-09-26 23:46:00,
2013-09-26 19:51:00,71.1,67.7,29.93,NNE,23,0.0,0.9,89,0.00,,,0.00,WUHU216HW,2013-09-26 23:51:00,
2013-09-26 19:56:00,70.9,67.5,29.92,NNE,23,0.0,0.7,89,0.00,,,0.00,WUHU216HW,2013-09-26 23:56:00,
2013-09-26 20:01:00,70.9,67.9,29.93,NNE,23,0.0,0.7,90,0.00,,,0.00,WUHU216HW,2013-09-27 00:01:00,
2013-09-26 20:07:00,70.9,67.9,29.93,NNE,23,0.0,0.0,90,0.00,,,0.00,WUHU216HW,2013-09-27 00:07:00,
2013-09-26 20:12:00,70.9,67.9,29.93,NNE,23,0.0,0.0,90,0.00,,,0.00,WUHU216HW,2013-09-27 00:12:00,
2013-09-26 20:17:00,70.7,67.7,29.93,NNE,23,0.0,0.0,90,0.00,,,0.00,WUHU216HW,2013-09-27 00:17:00,
2013-09-26 20:22:00,70.6,67.5,29.93,NNE,23,0.0,0.0,90,0.00,,,0.00,WUHU216HW,2013-09-27 00:22:00,
2013-09-26 20:27:00,70.6,67.5,29.93,NNE,23,0.0,0.0,90,0.00,,,0.00,WUHU216HW,2013-09-27 00:27:00,
2013-09-26 20:32:00,70.6,67.5,29.93,NNE,23,0.0,0.0,90,0.00,,,0.00,WUHU216HW,2013-09-27 00:32:00,
2013-09-26 20:37:00,70.6,67.5,29.93,NNE,23,0.0,0.0,90,0.00,,,0.00,WUHU216HW,2013-09-27 00:37:00,
2013-09-26 20:42:00,70.4,67.3,29.93,NNE,23,0.0,0.0,90,0.00,,,0.00,WUHU216HW,2013-09-27 00:42:00,
2013-09-26 20:47:00,70.2,67.1,29.93,NNE,23,0.0,0.0,90,0.00,,,0.00,WUHU216HW,2013-09-27 00:47:00,
2013-09-26 20:52:00,70.2,67.1,29.93,NNE,23,0.0,0.0,90,0.00,,,0.00,WUHU216HW,2013-09-27 00:52:00,
2013-09-26 20:57:00,70.0,67.2,29.93,NNE,23,0.0,0.0,91,0.00,,,0.00,WUHU216HW,2013-09-27 00:57:00,
2013-09-26 21:02:00,69.8,67.1,29.93,NNE,23,0.0,0.0,91,0.00,,,0.00,WUHU216HW,2013-09-27 01:02:00,
2013-09-26 21:07:00,69.7,66.9,29.94,NNE,23,0.0,0.0,91,0.00,,,0.00,WUHU216HW,2013-09-27 01:07:00,
2013-09-26 21:12:00,69.5,66.7,29.94,NNE,23,0.0,0.0,91,0.00,,,0.00,WUHU216HW,2013-09-27 01:12:00,
2013-09-26 21:17:00,69.3,66.5,29.94,NNE,23,0.0,0.0,91,0.00,,,0.00,WUHU216HW,2013-09-27 01:17:00,
2013-09-26 21:22:00,69.1,66.3,29.94,NNE,23,0.0,0.0,91,0.00,,,0.00,WUHU216HW,2013-09-27 01:22:00,
2013-09-26 21:27:00,69.1,66.3,29.94,NNE,23,0.0,0.0,91,0.00,,,0.00,WUHU216HW,2013-09-27 01:27:00,
2013-09-26 21:32:00,68.9,66.5,29.94,NNE,23,0.0,0.0,92,0.00,,,0.00,WUHU216HW,2013-09-27 01:32:00,
2013-09-26 21:37:00,68.9,66.5,29.94,NNE,23,0.0,0.0,92,0.00,,,0.00,WUHU216HW,2013-09-27 01:37:00,
2013-09-26 21:42:00,68.8,66.3,29.94,NNE,23,0.0,0.0,92,0.00,,,0.00,WUHU216HW,2013-09-27 01:42:00,
2013-09-26 21:47:00,68.8,66.3,29.94,NNE,23,0.0,0.0,92,0.00,,,0.00,WUHU216HW,2013-09-27 01:47:00,
2013-09-26 21:52:00,68.8,66.3,29.94,NNE,23,0.0,0.0,92,0.00,,,0.00,WUHU216HW,2013-09-27 01:52:00,
2013-09-26 21:57:00,68.8,66.3,29.94,NNE,23,0.0,0.0,92,0.00,,,0.00,WUHU216HW,2013-09-27 01:57:00,
2013-09-26 22:02:00,68.8,66.3,29.94,NNE,23,0.0,0.0,92,0.00,,,0.00,WUHU216HW,2013-09-27 02:02:00,
2013-09-26 22:07:00,68.9,66.5,29.95,NNE,23,0.0,0.0,92,0.00,,,0.00,WUHU216HW,2013-09-27 02:07:00,
2013-09-26 22:12:00,68.8,66.3,29.95,NNE,23,0.0,0.0,92,0.00,,,0.00,WUHU216HW,2013-09-27 02:12:00,
2013-09-26 22:17:00,68.8,66.3,29.95,NNE,23,0.0,0.0,92,0.00,,,0.00,WUHU216HW,2013-09-27 02:17:00,
2013-09-26 22:22:00,68.8,66.3,29.95,NNE,23,0.0,0.0,92,0.00,,,0.00,WUHU216HW,2013-09-27 02:22:00,
2013-09-26 22:27:00,68.8,66.3,29.94,NNE,23,0.0,0.0,92,0.00,,,0.00,WUHU216HW,2013-09-27 02:27:00,
2013-09-26 22:32:00,68.6,66.4,29.95,NNE,23,0.0,0.0,93,0.00,,,0.00,WUHU216HW,2013-09-27 02:32:00,
2013-09-26 22:37:00,68.6,66.4,29.95,NNE,23,0.0,0.0,93,0.00,,,0.00,WUHU216HW,2013-09-27 02:37:00,
2013-09-26 22:42:00,68.6,66.4,29.94,NNE,23,0.0,0.0,93,0.00,,,0.00,WUHU216HW,2013-09-27 02:42:00,
2013-09-26 22:47:00,68.6,66.4,29.95,NNE,23,0.0,0.0,93,0.00,,,0.00,WUHU216HW,2013-09-27 02:47:00,
2013-09-26 22:52:00,68.4,66.2,29.95,NNE,23,0.0,0.0,93,0.00,,,0.00,WUHU216HW,2013-09-27 02:52:00,
2013-09-26 22:57:00,68.4,66.2,29.95,NNE,23,0.0,0.0,93,0.00,,,0.00,WUHU216HW,2013-09-27 02:57:00,
2013-09-26 23:02:00,68.2,66.1,29.95,NNE,23,0.0,0.0,93,0.00,,,0.00,WUHU216HW,2013-09-27 03:02:00,
2013-09-26 23:07:00,68.0,65.9,29.95,NNE,23,0.0,0.0,93,0.00,,,0.00,WUHU216HW,2013-09-27 03:07:00,
2013-09-26 23:12:00,68.0,65.9,29.95,NNE,23,0.0,0.0,93,0.00,,,0.00,WUHU216HW,2013-09-27 03:12:00,
2013-09-26 23:17:00,68.0,65.9,29.95,NNE,23,0.0,0.0,93,0.00,,,0.00,WUHU216HW,2013-09-27 03:17:00,
2013-09-26 23:22:00,67.9,65.7,29.95,NNE,23,0.0,0.0,93,0.00,,,0.00,WUHU216HW,2013-09-27 03:22:00,
2013-09-26 23:27:00,67.7,65.5,29.95,NNE,23,0.0,0.0,93,0.00,,,0.00,WUHU216HW,2013-09-27 03:27:00,
2013-09-26 23:32:00,67.7,65.5,29.95,NNE,23,0.0,0.0,93,0.00,,,0.00,WUHU216HW,2013-09-27 03:32:00,
2013-09-26 23:37:00,67.5,65.7,29.95,NNE,23,0.0,0.0,94,0.00,,,0.00,WUHU216HW,2013-09-27 03:37:00,
2013-09-26 23:42:00,67.5,65.3,29.95,NNE,23,0.0,0.0,93,0.00,,,0.00,WUHU216HW,2013-09-27 03:42:00,
2013-09-26 23:47:00,67.3,65.2,29.95,NNE,23,0.0,0.0,93,0.00,,,0.00,WUHU216HW,2013-09-27 03:47:00,
2013-09-26 23:52:00,67.3,65.2,29.95,NNE,23,0.0,0.0,93,0.00,,,0.00,WUHU216HW,2013-09-27 03:52:00,
2013-09-26 23:57:00,67.1,65.4,29.95,NNE,23,0.0,0.0,94,0.00,,,0.00,WUHU216HW,2013-09-27 03:57:00,